Time;durP1;ratioP1;P1;durP2;ratioP2;P2;SDS_P1;SDS_P2;PMS_P1;PMS_P2;Temp;Humidity;BMP_temperature;BMP_pressure;BME280_temperature;BME280_humidity;BME280_pressure;Samples;Min_cycle;Max_cycle;Signal;HPM_P1;HPM_P2
2021/12/11 00:01:16;;;;;;;0.00;0.00;;;5.00;88.40;;;;;;3915277;30;20052;-66
2021/12/11 00:03:48;;;;;;;0.00;0.00;;;5.00;88.20;;;;;;3927518;30;20066;-65
2021/12/11 00:06:21;;;;;;;0.00;0.00;;;5.00;88.00;;;;;;3914822;30;20490;-65
2021/12/11 00:08:45;;;;;;;0.00;0.00;;;5.00;88.00;;;;;;3927487;30;20048;-62
2021/12/11 00:11:24;;;;;;;0.00;0.00;;;5.00;87.90;;;;;;3914884;30;20136;-62
2021/12/11 00:13:47;;;;;;;0.00;0.00;;;5.00;87.70;;;;;;3914624;30;20106;-65
2021/12/11 00:16:17;;;;;;;0.00;0.00;;;5.00;87.60;;;;;;3914978;30;20059;-63
2021/12/11 00:18:39;;;;;;;0.00;0.00;;;5.10;87.60;;;;;;3927501;30;20060;-63
2021/12/11 00:21:02;;;;;;;0.00;0.00;;;5.10;87.40;;;;;;3915226;30;20056;-66
2021/12/11 00:23:52;;;;;;;0.00;0.00;;;5.10;87.00;;;;;;3915223;30;20072;-65
2021/12/11 00:26:24;;;;;;;0.00;0.00;;;5.10;86.70;;;;;;3914665;30;20053;-66
2021/12/11 00:28:49;;;;;;;0.00;0.00;;;5.10;86.50;;;;;;3927122;30;20143;-65
2021/12/11 00:31:12;;;;;;;0.00;0.00;;;5.10;86.80;;;;;;3914787;30;20136;-63
2021/12/11 00:33:35;;;;;;;0.00;0.00;;;5.10;86.70;;;;;;3914997;30;20358;-65
2021/12/11 00:35:58;;;;;;;0.00;0.00;;;5.00;86.40;;;;;;3914373;30;20090;-65
2021/12/11 00:38:25;;;;;;;0.00;0.00;;;5.00;86.60;;;;;;3902987;30;20132;-64
2021/12/11 00:40:49;;;;;;;0.00;0.00;;;5.00;86.70;;;;;;3927118;30;20122;-63
2021/12/11 00:43:17;;;;;;;0.00;0.00;;;5.00;86.70;;;;;;3926501;30;20361;-63
2021/12/11 00:45:40;;;;;;;0.00;0.00;;;5.00;86.50;;;;;;3927315;30;20481;-63
2021/12/11 00:48:10;;;;;;;0.00;0.00;;;5.00;86.60;;;;;;3926704;30;20531;-64
2021/12/11 00:50:38;;;;;;;0.00;0.00;;;5.00;86.10;;;;;;3914848;30;20071;-65
2021/12/11 00:53:12;;;;;;;0.00;0.00;;;5.10;86.30;;;;;;3926863;30;20060;-65
2021/12/11 00:55:42;;;;;;;0.00;0.00;;;5.10;86.20;;;;;;3914570;30;20519;-63
2021/12/11 00:58:15;;;;;;;0.00;0.00;;;5.10;85.80;;;;;;3914348;30;20064;-64
2021/12/11 01:00:49;;;;;;;0.00;0.00;;;5.10;86.00;;;;;;3926554;30;20070;-63
2021/12/11 01:03:18;;;;;;;0.00;0.00;;;5.20;85.90;;;;;;3926851;30;20515;-63
2021/12/11 01:05:44;;;;;;;0.00;0.00;;;5.10;85.30;;;;;;3914583;30;20048;-63
2021/12/11 01:08:19;;;;;;;0.00;0.00;;;5.10;85.30;;;;;;3914126;30;20059;-64
2021/12/11 01:10:42;;;;;;;0.00;0.00;;;5.10;85.50;;;;;;3914447;30;20053;-66
2021/12/11 01:13:05;;;;;;;0.00;0.00;;;5.20;85.40;;;;;;3914294;30;20494;-64
2021/12/11 01:15:37;;;;;;;0.00;0.00;;;5.20;84.90;;;;;;3926769;30;20076;-63
2021/12/11 01:20:50;;;;;;;0.00;0.00;;;5.20;84.20;;;;;;3926551;30;20542;-65
2021/12/11 01:23:29;;;;;;;0.00;0.00;;;5.20;84.40;;;;;;3914307;30;20107;-65
2021/12/11 01:25:52;;;;;;;0.00;0.00;;;5.20;84.00;;;;;;3926248;30;20234;-65
2021/12/11 01:28:14;;;;;;;0.00;0.00;;;5.20;83.90;;;;;;3926419;30;20048;-64
2021/12/11 01:30:41;;;;;;;0.00;0.00;;;5.20;84.10;;;;;;3926330;30;20147;-65
2021/12/11 01:33:06;;;;;;;0.00;0.00;;;5.20;84.00;;;;;;3914141;30;20063;-66
2021/12/11 01:35:32;;;;;;;0.00;0.00;;;5.20;83.20;;;;;;3910705;30;20766;-64
2021/12/11 01:38:18;;;;;;;0.00;0.00;;;5.20;83.50;;;;;;3913906;30;20420;-64
2021/12/11 01:40:44;;;;;;;0.00;0.00;;;5.10;83.30;;;;;;3926273;30;20052;-65
2021/12/11 01:43:09;;;;;;;0.00;0.00;;;5.20;83.20;;;;;;3926708;30;20052;-65
2021/12/11 01:45:33;;;;;;;0.00;0.00;;;5.20;83.30;;;;;;3926680;30;20525;-66
2021/12/11 01:47:56;;;;;;;0.00;0.00;;;5.20;83.20;;;;;;3925907;30;20095;-64
2021/12/11 01:50:29;;;;;;;0.00;0.00;;;5.20;83.50;;;;;;3926865;30;20081;-65
2021/12/11 01:53:24;;;;;;;0.00;0.00;;;5.20;83.30;;;;;;3914373;30;20463;-65
2021/12/11 01:55:57;;;;;;;0.00;0.00;;;5.20;83.50;;;;;;3913736;30;20144;-67
2021/12/11 01:58:36;;;;;;;0.00;0.00;;;5.20;83.50;;;;;;3913790;30;20059;-64
2021/12/11 02:01:04;;;;;;;0.00;0.00;;;5.20;83.20;;;;;;3925843;30;20113;-66
2021/12/11 02:03:31;;;;;;;0.00;0.00;;;5.20;83.30;;;;;;3913902;30;20060;-63
2021/12/11 02:05:53;;;;;;;0.00;0.00;;;5.20;83.10;;;;;;3913414;30;20179;-66
2021/12/11 02:08:19;;;;;;;0.00;0.00;;;5.20;83.30;;;;;;3914031;30;20500;-64
2021/12/11 02:10:58;;;;;;;0.00;0.00;;;5.20;82.70;;;;;;3913682;30;20061;-66
2021/12/11 02:13:36;;;;;;;0.00;0.00;;;5.20;83.60;;;;;;3913621;30;20143;-65
2021/12/11 02:16:00;;;;;;;0.00;0.00;;;5.20;82.90;;;;;;3925826;30;20491;-64
2021/12/11 02:18:34;;;;;;;0.00;0.00;;;5.20;82.70;;;;;;3913905;30;20053;-66
2021/12/11 02:21:05;;;;;;;0.00;0.00;;;5.20;82.50;;;;;;3925994;30;20676;-66
2021/12/11 02:23:28;;;;;;;0.00;0.00;;;5.20;82.70;;;;;;3926330;30;20582;-65
2021/12/11 02:25:53;;;;;;;0.00;0.00;;;5.20;82.60;;;;;;3913550;30;20068;-66
2021/12/11 02:28:28;;;;;;;0.00;0.00;;;5.20;82.40;;;;;;3926287;30;20110;-65
2021/12/11 02:31:03;;;;;;;0.00;0.00;;;5.20;82.70;;;;;;3925868;30;20127;-65
2021/12/11 02:33:34;;;;;;;0.00;0.00;;;5.20;82.40;;;;;;3926152;30;20067;-64
2021/12/11 02:36:01;;;;;;;0.00;0.00;;;5.20;82.20;;;;;;3913321;30;20115;-65
2021/12/11 02:38:45;;;;;;;0.00;0.00;;;5.20;81.70;;;;;;3926240;30;20045;-66
2021/12/11 02:41:14;;;;;;;0.00;0.00;;;5.30;82.00;;;;;;3913577;30;20147;-66
2021/12/11 02:43:44;;;;;;;0.00;0.00;;;5.30;82.10;;;;;;3913743;30;20087;-65
2021/12/11 02:46:13;;;;;;;0.00;0.00;;;5.30;82.00;;;;;;3913510;30;20044;-65
2021/12/11 02:48:38;;;;;;;0.00;0.00;;;5.30;81.60;;;;;;3913755;30;20294;-66
2021/12/11 02:51:23;;;;;;;0.00;0.00;;;5.30;81.90;;;;;;3913651;30;20633;-64
2021/12/11 02:53:56;;;;;;;0.00;0.00;;;5.30;81.80;;;;;;3925978;30;20056;-65
2021/12/11 02:56:30;;;;;;;0.00;0.00;;;5.30;81.80;;;;;;3913455;30;20083;-65
2021/12/11 02:58:57;;;;;;;0.00;0.00;;;5.30;81.60;;;;;;3926197;30;20436;-65
2021/12/11 03:01:30;;;;;;;0.00;0.00;;;5.20;81.60;;;;;;3925986;30;20192;-65
2021/12/11 03:04:20;;;;;;;0.00;0.00;;;5.30;81.70;;;;;;3913466;30;20553;-66
2021/12/11 03:06:46;;;;;;;0.00;0.00;;;5.20;81.60;;;;;;3927971;30;20067;-66
2021/12/11 03:09:11;;;;;;;0.00;0.00;;;5.20;81.70;;;;;;3928533;30;20424;-65
2021/12/11 03:11:34;;;;;;;0.00;0.00;;;5.20;81.90;;;;;;3928286;30;20186;-65
2021/12/11 03:13:58;;;;;;;0.00;0.00;;;5.30;82.10;;;;;;3928095;30;20063;-63
2021/12/11 03:16:26;;;;;;;0.00;0.00;;;5.20;82.30;;;;;;3916229;30;20128;-64
2021/12/11 03:18:51;;;;;;;0.00;0.00;;;5.30;82.30;;;;;;3928476;30;20480;-66
2021/12/11 03:21:14;;;;;;;0.00;0.00;;;5.20;82.50;;;;;;3903850;30;20665;-64
2021/12/11 03:23:36;;;;;;;0.00;0.00;;;5.20;82.40;;;;;;3928225;30;20491;-64
2021/12/11 03:26:00;;;;;;;0.00;0.00;;;5.20;83.30;;;;;;3915621;30;20080;-64
2021/12/11 03:28:23;;;;;;;0.00;0.00;;;5.20;83.10;;;;;;3928206;30;20048;-66
2021/12/11 03:30:57;;;;;;;0.00;0.00;;;5.20;83.10;;;;;;3927897;30;20080;-66
2021/12/11 03:33:20;;;;;;;0.00;0.00;;;5.20;83.10;;;;;;3915755;30;20053;-65
2021/12/11 03:35:45;;;;;;;0.00;0.00;;;5.20;82.70;;;;;;3915901;30;20063;-65
2021/12/11 03:38:09;;;;;;;0.00;0.00;;;5.10;82.70;;;;;;3915606;30;20087;-64
2021/12/11 03:40:33;;;;;;;0.00;0.00;;;5.10;83.10;;;;;;3903875;30;20067;-67
2021/12/11 03:42:59;;;;;;;0.00;0.00;;;5.10;83.80;;;;;;3915924;30;20129;-67
2021/12/11 03:45:29;;;;;;;0.00;0.00;;;5.10;83.90;;;;;;3928178;30;20052;-64
2021/12/11 03:47:56;;;;;;;0.00;0.00;;;5.10;84.30;;;;;;3927647;30;20064;-64
2021/12/11 03:50:21;;;;;;;0.00;0.00;;;5.10;84.10;;;;;;3915420;30;20080;-66
2021/12/11 03:52:45;;;;;;;0.00;0.00;;;5.00;84.10;;;;;;3927685;30;20064;-63
2021/12/11 03:55:09;;;;;;;0.00;0.00;;;5.10;84.40;;;;;;3915338;30;20099;-66
2021/12/11 03:57:31;;;;;;;0.00;0.00;;;5.10;84.40;;;;;;3915478;30;20496;-63
2021/12/11 03:59:54;;;;;;;0.00;0.00;;;5.10;84.20;;;;;;3915107;30;20059;-67
2021/12/11 04:02:21;;;;;;;0.00;0.00;;;5.10;84.20;;;;;;3915139;30;20044;-63
2021/12/11 04:04:57;;;;;;;0.00;0.00;;;5.10;84.00;;;;;;3915516;30;20057;-62
2021/12/11 04:07:28;;;;;;;0.00;0.00;;;5.10;84.50;;;;;;3915405;30;20055;-63
2021/12/11 04:09:51;;;;;;;0.00;0.00;;;5.10;84.30;;;;;;3914898;30;20098;-63
2021/12/11 04:12:14;;;;;;;0.00;0.00;;;5.10;84.40;;;;;;3914913;30;20045;-64
2021/12/11 04:14:42;;;;;;;0.00;0.00;;;5.10;84.40;;;;;;3915166;30;20152;-65
2021/12/11 04:17:06;;;;;;;0.00;0.00;;;5.10;84.10;;;;;;3914979;30;20114;-63
2021/12/11 04:19:30;;;;;;;0.00;0.00;;;5.10;84.10;;;;;;3915362;30;20057;-62
2021/12/11 04:21:52;;;;;;;0.00;0.00;;;5.10;83.90;;;;;;3914779;30;20114;-63
2021/12/11 04:24:18;;;;;;;0.00;0.00;;;5.10;84.30;;;;;;3915430;30;20164;-63
2021/12/11 04:26:41;;;;;;;0.00;0.00;;;5.00;84.00;;;;;;3915289;30;20139;-63
2021/12/11 04:29:05;;;;;;;0.00;0.00;;;5.00;84.30;;;;;;3915487;30;20068;-63
2021/12/11 04:31:32;;;;;;;0.00;0.00;;;5.10;84.60;;;;;;3915038;30;20060;-65
2021/12/11 04:33:57;;;;;;;0.00;0.00;;;5.10;84.60;;;;;;3914489;30;20066;-63
2021/12/11 04:36:26;;;;;;;0.00;0.00;;;5.00;84.20;;;;;;3915002;30;20559;-65
2021/12/11 04:38:48;;;;;;;0.00;0.00;;;5.10;84.40;;;;;;3927075;30;20169;-66
2021/12/11 04:41:16;;;;;;;0.00;0.00;;;5.00;84.00;;;;;;3914685;30;20084;-64
2021/12/11 04:43:41;;;;;;;0.00;0.00;;;5.00;83.90;;;;;;3914786;30;20451;-65
2021/12/11 04:46:07;;;;;;;0.00;0.00;;;5.00;83.90;;;;;;3914431;30;20048;-66
2021/12/11 04:52:01;;;;;;;0.00;0.00;;;5.10;83.90;;;;;;3914443;30;20054;-65
2021/12/11 04:59:35;;;;;;;0.00;0.00;;;5.10;82.90;;;;;;3914645;30;20109;-66
2021/12/11 05:02:52;;;;;;;0.00;0.00;;;5.10;83.00;;;;;;3914028;30;20535;-64
2021/12/11 05:05:28;;;;;;;0.00;0.00;;;5.10;83.30;;;;;;3914496;30;20197;-66
2021/12/11 05:10:52;;;;;;;0.00;0.00;;;5.20;83.30;;;;;;3914145;30;20047;-62
2021/12/11 05:13:16;;;;;;;0.00;0.00;;;5.20;83.30;;;;;;3914309;30;20828;-65
2021/12/11 05:15:42;;;;;;;0.00;0.00;;;5.20;83.00;;;;;;3914346;30;20101;-64
2021/12/11 05:18:13;;;;;;;0.00;0.00;;;5.20;83.20;;;;;;3926364;30;20083;-67
2021/12/11 05:20:37;;;;;;;;;;;5.20;83.20;;;;;;3914407;30;20135;-65
2021/12/11 05:23:00;;;;;;;0.00;0.00;;;5.10;83.40;;;;;;3914260;30;19990;-64
2021/12/11 05:25:23;;;;;;;0.00;0.00;;;5.20;83.90;;;;;;3914088;30;20106;-64
2021/12/11 05:27:46;;;;;;;0.00;0.00;;;5.20;84.00;;;;;;3914066;30;20130;-65
2021/12/11 05:30:16;;;;;;;0.00;0.00;;;5.20;83.60;;;;;;3913850;30;20135;-64
2021/12/11 05:32:39;;;;;;;0.00;0.00;;;5.20;83.70;;;;;;3914172;30;20044;-65
2021/12/11 05:35:03;;;;;;;0.00;0.00;;;5.20;83.50;;;;;;3914088;30;20056;-66
2021/12/11 05:37:26;;;;;;;0.00;0.00;;;5.10;83.20;;;;;;3914283;30;20565;-65
2021/12/11 05:39:48;;;;;;;0.00;0.00;;;5.10;83.60;;;;;;3901968;30;20099;-66
2021/12/11 05:42:11;;;;;;;0.00;0.00;;;5.10;83.40;;;;;;3914105;30;20460;-66
2021/12/11 05:44:34;;;;;;;0.00;0.00;;;5.10;83.40;;;;;;3914241;30;20516;-66
2021/12/11 05:46:56;;;;;;;0.00;0.00;;;5.20;83.70;;;;;;3914283;30;20606;-65
2021/12/11 05:49:21;;;;;;;0.00;0.00;;;5.20;83.60;;;;;;3914365;30;20057;-66
2021/12/11 05:51:46;;;;;;;0.00;0.00;;;5.20;83.70;;;;;;3914070;30;20080;-64
2021/12/11 05:54:21;;;;;;;0.00;0.00;;;5.10;83.60;;;;;;3913719;30;20076;-63
2021/12/11 05:56:44;;;;;;;0.00;0.00;;;5.10;83.50;;;;;;3914194;30;20048;-64
2021/12/11 05:59:09;;;;;;;0.00;0.00;;;5.10;83.70;;;;;;3914360;30;20052;-64
2021/12/11 06:02:15;;;;;;;0.00;0.00;;;5.10;83.90;;;;;;3914102;30;20084;-66
2021/12/11 06:04:40;;;;;;;0.00;0.00;;;5.10;83.80;;;;;;3925854;30;20538;-63
2021/12/11 06:07:06;;;;;;;0.00;0.00;;;5.10;83.60;;;;;;3914085;30;20175;-65
2021/12/11 06:09:29;;;;;;;0.00;0.00;;;5.10;83.50;;;;;;3913735;30;20147;-65
2021/12/11 06:11:57;;;;;;;0.00;0.00;;;5.10;83.60;;;;;;3913636;30;20056;-66
2021/12/11 06:14:21;;;;;;;0.00;0.00;;;5.10;84.10;;;;;;3901993;30;20057;-63
2021/12/11 06:16:45;;;;;;;0.00;0.00;;;5.10;84.30;;;;;;3901890;30;20057;-66
2021/12/11 06:19:08;;;;;;;0.00;0.00;;;5.10;84.00;;;;;;3901884;30;20053;-64
2021/12/11 06:21:33;;;;;;;0.00;0.00;;;5.10;84.20;;;;;;3913604;30;20117;-65
2021/12/11 06:23:56;;;;;;;0.00;0.00;;;5.10;83.90;;;;;;3913566;30;20496;-63
2021/12/11 06:26:18;;;;;;;0.00;0.00;;;5.10;84.00;;;;;;3913974;30;20063;-65
2021/12/11 06:28:41;;;;;;;0.00;0.00;;;5.10;84.20;;;;;;3914148;30;20499;-63
2021/12/11 06:31:04;;;;;;;0.00;0.00;;;5.10;84.10;;;;;;3901907;30;20088;-63
2021/12/11 06:33:28;;;;;;;0.00;0.00;;;5.10;84.80;;;;;;3914114;30;20064;-63
2021/12/11 06:35:58;;;;;;;0.00;0.00;;;5.10;84.60;;;;;;3913506;30;20060;-63
2021/12/11 06:38:23;;;;;;;0.00;0.00;;;5.10;84.90;;;;;;3913976;30;20127;-63
2021/12/11 06:40:47;;;;;;;0.00;0.00;;;5.00;84.70;;;;;;3914394;30;20079;-63
2021/12/11 06:43:10;;;;;;;0.00;0.00;;;5.00;84.90;;;;;;3916564;30;20131;-63
2021/12/11 06:45:33;;;;;;;0.00;0.00;;;5.00;85.00;;;;;;3916456;30;20083;-64
2021/12/11 06:47:56;;;;;;;0.00;0.00;;;5.00;85.40;;;;;;3916103;30;20059;-63
2021/12/11 06:50:19;;;;;;;0.00;0.00;;;5.00;85.60;;;;;;3916392;30;20052;-63
2021/12/11 06:52:42;;;;;;;0.00;0.00;;;5.00;85.50;;;;;;3916489;30;20060;-63
2021/12/11 06:55:08;;;;;;;0.00;0.00;;;5.00;85.60;;;;;;3916420;30;20140;-65
2021/12/11 06:57:30;;;;;;;0.00;0.00;;;5.00;85.40;;;;;;3916335;30;20065;-66
2021/12/11 06:59:53;;;;;;;0.00;0.00;;;5.00;85.50;;;;;;3915952;30;20053;-66
2021/12/11 07:02:18;;;;;;;0.00;0.00;;;5.00;85.90;;;;;;3916229;30;20056;-63
2021/12/11 07:04:40;;;;;;;0.00;0.00;;;5.00;86.10;;;;;;3916138;30;20124;-63
2021/12/11 07:07:04;;;;;;;0.00;0.00;;;4.90;86.20;;;;;;3916028;30;20048;-62
2021/12/11 07:09:30;;;;;;;0.00;0.00;;;5.00;86.40;;;;;;3916020;30;20151;-62
2021/12/11 07:11:55;;;;;;;0.00;0.00;;;4.90;86.40;;;;;;3915528;30;20114;-63
2021/12/11 07:14:19;;;;;;;0.00;0.00;;;4.90;86.80;;;;;;3916054;30;20056;-63
2021/12/11 07:16:42;;;;;;;0.00;0.00;;;4.90;87.20;;;;;;3916069;30;20088;-64
2021/12/11 07:19:07;;;;;;;0.00;0.00;;;4.80;87.60;;;;;;3916083;30;20052;-64
2021/12/11 07:21:30;;;;;;;0.00;0.00;;;4.80;88.10;;;;;;3915794;30;20435;-64
2021/12/11 07:23:52;;;;;;;0.00;0.00;;;4.70;88.40;;;;;;3915575;30;20048;-64
2021/12/11 07:26:28;;;;;;;0.00;0.00;;;4.70;88.70;;;;;;3916098;30;20041;-64
2021/12/11 07:28:54;;;;;;;0.00;0.00;;;4.70;89.00;;;;;;3903863;30;20057;-65
2021/12/11 07:31:18;;;;;;;0.00;0.00;;;4.70;89.20;;;;;;3915904;30;20126;-62
2021/12/11 07:33:41;;;;;;;0.00;0.00;;;4.80;89.70;;;;;;3928255;30;20056;-62
2021/12/11 07:36:05;;;;;;;0.00;0.00;;;4.70;90.00;;;;;;3901170;30;20059;-63
2021/12/11 07:38:28;;;;;;;0.00;0.00;;;4.70;90.10;;;;;;3889579;30;20057;-63
2021/12/11 07:40:55;;;;;;;0.00;0.00;;;4.70;90.20;;;;;;3900948;30;20061;-62
2021/12/11 07:43:20;;;;;;;0.00;0.00;;;4.70;90.30;;;;;;3913334;30;20162;-62
2021/12/11 07:45:44;;;;;;;0.00;0.00;;;4.50;90.70;;;;;;3901141;30;20056;-63
2021/12/11 07:48:09;;;;;;;0.00;0.00;;;4.60;90.60;;;;;;3900825;30;20084;-63
2021/12/11 07:50:32;;;;;;;0.00;0.00;;;4.60;90.80;;;;;;3900892;30;20533;-62
2021/12/11 07:52:55;;;;;;;0.00;0.00;;;4.50;90.90;;;;;;3900675;30;20050;-62
2021/12/11 07:55:18;;;;;;;0.00;0.00;;;4.60;91.00;;;;;;3888875;30;20144;-63
2021/12/11 07:57:42;;;;;;;0.00;0.00;;;4.50;91.10;;;;;;3900876;30;20056;-62
2021/12/11 08:00:08;;;;;;;0.00;0.00;;;4.50;91.20;;;;;;3900657;30;20096;-64
2021/12/11 08:02:34;;;;;;;0.00;0.00;;;4.40;91.30;;;;;;3900869;30;20060;-66
2021/12/11 08:04:57;;;;;;;0.00;0.00;;;4.50;91.30;;;;;;3900972;30;20045;-66
2021/12/11 08:07:20;;;;;;;0.00;0.00;;;4.40;91.50;;;;;;3900908;30;20148;-63
2021/12/11 08:09:43;;;;;;;0.00;0.00;;;4.40;91.60;;;;;;3900712;30;20088;-62
2021/12/11 08:12:07;;;;;;;0.00;0.00;;;4.40;91.70;;;;;;3900356;30;20053;-65
2021/12/11 08:14:30;;;;;;;0.00;0.00;;;4.40;91.70;;;;;;3900990;30;20140;-63
2021/12/11 08:16:57;;;;;;;0.00;0.00;;;4.40;91.80;;;;;;3901160;30;20057;-65
2021/12/11 08:19:24;;;;;;;0.00;0.00;;;4.40;91.90;;;;;;3901044;30;20061;-63
2021/12/11 08:21:50;;;;;;;0.00;0.00;;;4.50;91.90;;;;;;3888306;30;20128;-63
2021/12/11 08:24:13;;;;;;;0.00;0.00;;;4.50;91.80;;;;;;3901131;30;20049;-62
2021/12/11 08:26:38;;;;;;;0.00;0.00;;;4.50;91.90;;;;;;3900495;30;20119;-65
2021/12/11 08:29:04;;;;;;;0.00;0.00;;;4.50;91.80;;;;;;3900682;30;20393;-63
2021/12/11 08:31:27;;;;;;;0.00;0.00;;;4.60;91.80;;;;;;3900360;30;20099;-63
2021/12/11 08:33:52;;;;;;;0.00;0.00;;;4.60;91.80;;;;;;3900095;30;20061;-66
2021/12/11 08:36:15;;;;;;;0.00;0.00;;;4.60;91.80;;;;;;3900515;30;20152;-66
2021/12/11 08:38:38;;;;;;;0.00;0.00;;;4.60;91.80;;;;;;3900249;30;20053;-66
2021/12/11 08:41:04;;;;;;;0.00;0.00;;;4.60;91.80;;;;;;3888108;30;20053;-66
2021/12/11 08:43:28;;;;;;;0.00;0.00;;;4.70;91.90;;;;;;3900582;30;20084;-70
2021/12/11 08:46:08;;;;;;;0.00;0.00;;;4.70;92.00;;;;;;3900094;30;20531;-67
2021/12/11 08:48:32;;;;;;;0.00;0.00;;;4.80;92.10;;;;;;3917328;30;20084;-76
2021/12/11 08:51:03;;;;;;;0.00;0.00;;;5.00;92.00;;;;;;3915752;30;20136;-67
2021/12/11 08:53:25;;;;;;;;;;;5.00;91.60;;;;;;3934202;30;20071;-65
2021/12/11 08:55:51;;;;;;;0.00;0.00;;;4.90;91.40;;;;;;3916863;30;19970;-68
2021/12/11 08:58:16;;;;;;;0.00;0.00;;;4.90;91.30;;;;;;3915941;30;20117;-65
2021/12/11 09:00:44;;;;;;;0.00;0.00;;;4.80;91.20;;;;;;3906655;30;20056;-65
2021/12/11 09:03:33;;;;;;;0.00;0.00;;;4.90;91.40;;;;;;3915407;30;20534;-69
2021/12/11 09:06:03;;;;;;;0.00;0.00;;;4.90;91.40;;;;;;3904921;30;20068;-67
2021/12/11 09:09:00;;;;;;;0.00;0.00;;;4.90;91.30;;;;;;3904551;30;20087;-71
2021/12/11 09:11:31;;;;;;;0.00;0.00;;;4.90;91.30;;;;;;3917135;30;20057;-68
2021/12/11 09:14:32;;;;;;;0.00;0.00;;;4.90;91.20;;;;;;3917727;30;20092;-73
2021/12/11 09:17:20;;;;;;;0.00;0.00;;;4.90;91.20;;;;;;3887711;30;20447;-66
2021/12/11 09:19:59;;;;;;;0.00;0.00;;;4.90;91.20;;;;;;3891065;30;20056;-69
2021/12/11 09:22:31;;;;;;;0.00;0.00;;;4.90;91.10;;;;;;3893101;30;20045;-70
2021/12/11 09:24:59;;;;;;;0.00;0.00;;;5.00;91.20;;;;;;3893983;30;20092;-71
2021/12/11 09:27:40;;;;;;;0.00;0.00;;;4.90;91.10;;;;;;3899373;30;20058;-71
2021/12/11 09:30:20;;;;;;;0.00;0.00;;;4.90;91.00;;;;;;3906229;30;20119;-73
2021/12/11 09:32:53;;;;;;;0.00;0.00;;;5.00;91.20;;;;;;3890634;30;20075;-65
2021/12/11 09:35:15;;;;;;;0.00;0.00;;;5.00;91.00;;;;;;3898892;30;20076;-66
2021/12/11 09:37:40;;;;;;;0.00;0.00;;;4.90;91.00;;;;;;3905028;30;20129;-67
2021/12/11 09:40:24;;;;;;;0.00;0.00;;;5.00;91.00;;;;;;3904703;30;20061;-66
2021/12/11 09:42:46;;;;;;;0.00;0.00;;;5.00;91.00;;;;;;3905196;30;20147;-66
2021/12/11 09:45:16;;;;;;;0.00;0.00;;;5.00;90.80;;;;;;3892772;30;20060;-64
2021/12/11 09:47:58;;;;;;;0.00;0.00;;;5.10;90.90;;;;;;3904739;30;20140;-66
2021/12/11 09:50:29;;;;;;;0.00;0.00;;;5.10;90.80;;;;;;3904465;30;20081;-65
2021/12/11 09:52:52;;;;;;;0.00;0.00;;;5.20;90.80;;;;;;3923938;30;20052;-66
2021/12/11 09:55:28;;;;;;;0.00;0.00;;;5.20;90.70;;;;;;3932835;30;20120;-67
2021/12/11 09:57:57;;;;;;;0.00;0.00;;;5.30;90.50;;;;;;3932029;30;20529;-66
2021/12/11 10:00:27;;;;;;;0.00;0.00;;;5.30;90.50;;;;;;3932270;30;20472;-67
2021/12/11 10:02:50;;;;;;;0.00;0.00;;;5.30;90.30;;;;;;3918820;30;20056;-63
2021/12/11 10:05:39;;;;;;;0.00;0.00;;;5.30;90.20;;;;;;3929171;30;20056;-64
2021/12/11 10:08:30;;;;;;;0.00;0.00;;;5.30;90.30;;;;;;3941073;30;20052;-63
2021/12/11 10:11:10;;;;;;;0.00;0.00;;;5.30;90.30;;;;;;3941276;30;20051;-61
2021/12/11 10:13:35;;;;;;;0.00;0.00;;;5.30;90.40;;;;;;3928754;30;20499;-62
2021/12/11 10:15:58;;;;;;;0.00;0.00;;;5.30;90.50;;;;;;3944068;30;20060;-63
2021/12/11 10:18:24;;;;;;;0.00;0.00;;;5.40;90.50;;;;;;3919755;30;20106;-61
2021/12/11 10:20:48;;;;;;;0.00;0.00;;;5.40;90.50;;;;;;3931785;30;20581;-62
2021/12/11 10:23:15;;;;;;;0.00;0.00;;;5.30;90.40;;;;;;3931883;30;20060;-62
2021/12/11 10:25:39;;;;;;;0.00;0.00;;;5.40;90.50;;;;;;3944215;30;20047;-62
2021/12/11 10:28:07;;;;;;;0.00;0.00;;;5.40;90.40;;;;;;3931503;30;20538;-62
2021/12/11 10:30:35;;;;;;;0.00;0.00;;;5.40;90.40;;;;;;3931602;30;20071;-62
2021/12/11 10:33:00;;;;;;;0.00;0.00;;;5.50;90.50;;;;;;3931727;30;20483;-63
2021/12/11 10:35:28;;;;;;;0.00;0.00;;;5.40;90.20;;;;;;3931401;30;20098;-62
2021/12/11 10:37:51;;;;;;;0.00;0.00;;;5.40;90.20;;;;;;3943485;30;20082;-61
2021/12/11 10:40:18;;;;;;;0.00;0.00;;;5.40;90.30;;;;;;3932031;30;20044;-62
2021/12/11 10:42:43;;;;;;;0.00;0.00;;;5.40;90.20;;;;;;3931998;30;20078;-63
2021/12/11 10:45:11;;;;;;;0.00;0.00;;;5.40;90.10;;;;;;3933031;30;20052;-63
2021/12/11 10:47:40;;;;;;;0.00;0.00;;;5.50;89.90;;;;;;3933310;30;20466;-62
2021/12/11 10:50:17;;;;;;;0.00;0.00;;;5.50;89.60;;;;;;3933122;30;20071;-66
2021/12/11 10:52:40;;;;;;;0.00;0.00;;;5.50;89.60;;;;;;3934494;30;20547;-63
2021/12/11 10:55:08;;;;;;;0.00;0.00;;;5.50;89.40;;;;;;3946395;30;20068;-66
2021/12/11 10:57:32;;;;;;;0.00;0.00;;;5.50;89.20;;;;;;3933990;30;20056;-67
2021/12/11 10:59:58;;;;;;;0.00;0.00;;;5.50;89.30;;;;;;3933313;30;20052;-65
2021/12/11 11:02:27;;;;;;;0.00;0.00;;;5.60;88.90;;;;;;3932770;30;20076;-65
2021/12/11 11:04:55;;;;;;;0.00;0.00;;;5.60;88.80;;;;;;3933590;30;20044;-66
2021/12/11 11:07:19;;;;;;;0.00;0.00;;;5.70;88.80;;;;;;3933200;30;20143;-66
2021/12/11 11:09:42;;;;;;;0.00;0.00;;;5.70;88.80;;;;;;3933264;30;20055;-66
2021/12/11 11:12:08;;;;;;;0.00;0.00;;;5.70;88.70;;;;;;3931247;30;20060;-62
2021/12/11 11:14:34;;;;;;;0.00;0.00;;;5.70;88.80;;;;;;3930949;30;20472;-63
2021/12/11 11:17:11;;;;;;;0.00;0.00;;;5.80;88.70;;;;;;3930985;30;20149;-64
2021/12/11 11:19:36;;;;;;;0.00;0.00;;;5.80;88.70;;;;;;3931233;30;20140;-63
2021/12/11 11:22:03;;;;;;;0.00;0.00;;;5.70;88.50;;;;;;3930579;30;20511;-63
2021/12/11 11:24:34;;;;;;;0.00;0.00;;;5.70;88.80;;;;;;3943448;30;20119;-63
2021/12/11 11:26:57;;;;;;;0.00;0.00;;;5.70;89.10;;;;;;3930430;30;20087;-64
2021/12/11 11:29:23;;;;;;;0.00;0.00;;;5.70;89.30;;;;;;3931252;30;20048;-63
2021/12/11 11:31:48;;;;;;;0.00;0.00;;;5.60;89.20;;;;;;3918691;30;20455;-64
2021/12/11 11:34:14;;;;;;;0.00;0.00;;;5.70;89.30;;;;;;3932043;30;20106;-65
2021/12/11 11:36:37;;;;;;;0.00;0.00;;;5.70;89.50;;;;;;3934056;30;20072;-66
2021/12/11 11:39:09;;;;;;;0.00;0.00;;;5.70;89.40;;;;;;3921846;30;20090;-63
2021/12/11 11:41:37;;;;;;;0.00;0.00;;;5.60;89.40;;;;;;3934610;30;20060;-67
2021/12/11 11:44:00;;;;;;;0.00;0.00;;;5.70;89.50;;;;;;3934159;30;20150;-67
2021/12/11 11:46:24;;;;;;;0.00;0.00;;;5.70;89.60;;;;;;3934410;30;20110;-68
2021/12/11 11:48:51;;;;;;;0.00;0.00;;;5.70;89.20;;;;;;3934420;30;20064;-68
2021/12/11 11:51:21;;;;;;;0.00;0.00;;;5.70;88.90;;;;;;3946680;30;20100;-64
2021/12/11 11:53:44;;;;;;;0.00;0.00;;;5.70;89.10;;;;;;3933960;30;20475;-66
2021/12/11 11:56:11;;;;;;;0.00;0.00;;;5.80;88.90;;;;;;3946363;30;20057;-67
2021/12/11 11:58:35;;;;;;;0.00;0.00;;;5.70;88.80;;;;;;3946916;30;20055;-64
2021/12/11 12:01:22;;;;;;;0.00;0.00;;;5.80;88.80;;;;;;3934141;30;20045;-68
2021/12/11 12:03:45;;;;;;;0.00;0.00;;;5.90;88.60;;;;;;3934259;30;20048;-66
2021/12/11 12:06:12;;;;;;;0.00;0.00;;;5.90;88.30;;;;;;3933566;30;20044;-65
2021/12/11 12:08:37;;;;;;;0.00;0.00;;;5.90;87.90;;;;;;3934318;30;20056;-67
2021/12/11 12:11:00;;;;;;;0.00;0.00;;;5.80;87.90;;;;;;3921020;30;20790;-65
2021/12/11 12:13:26;;;;;;;0.00;0.00;;;5.80;87.80;;;;;;3934876;30;20110;-67
2021/12/11 12:15:54;;;;;;;0.00;0.00;;;5.80;87.70;;;;;;3931311;30;20068;-65
2021/12/11 12:18:19;;;;;;;0.00;0.00;;;5.80;87.60;;;;;;3933974;30;20063;-67
2021/12/11 12:20:42;;;;;;;0.00;0.00;;;5.80;87.70;;;;;;3926866;30;20102;-68
2021/12/11 12:23:08;;;;;;;0.00;0.00;;;5.80;87.90;;;;;;3917019;30;20070;-62
2021/12/11 12:25:31;;;;;;;0.00;0.00;;;5.70;87.90;;;;;;3929239;30;20063;-62
2021/12/11 12:27:55;;;;;;;0.00;0.00;;;5.70;87.70;;;;;;3917297;30;20052;-62
2021/12/11 12:30:32;;;;;;;0.00;0.00;;;5.70;87.80;;;;;;3917787;30;20049;-63
2021/12/11 12:32:56;;;;;;;0.00;0.00;;;5.70;87.90;;;;;;3917367;30;20048;-63
2021/12/11 12:35:19;;;;;;;0.00;0.00;;;5.80;87.90;;;;;;3917141;30;20063;-63
2021/12/11 12:37:42;;;;;;;0.00;0.00;;;5.80;87.50;;;;;;3917190;30;20057;-62
2021/12/11 12:40:11;;;;;;;0.00;0.00;;;5.80;87.50;;;;;;3917383;30;20061;-62
2021/12/11 12:42:40;;;;;;;0.00;0.00;;;5.80;87.60;;;;;;3917736;30;20515;-63
2021/12/11 12:45:13;;;;;;;0.00;0.00;;;5.90;87.50;;;;;;3917546;30;20049;-62
2021/12/11 12:47:41;;;;;;;0.00;0.00;;;5.90;87.10;;;;;;3917537;30;20144;-63
2021/12/11 12:50:32;;;;;;;0.00;0.00;;;6.00;86.90;;;;;;3917080;30;20206;-62
2021/12/11 12:52:57;;;;;;;0.00;0.00;;;6.00;86.70;;;;;;3917556;30;20467;-64
2021/12/11 12:55:24;;;;;;;0.00;0.00;;;5.90;86.60;;;;;;3917335;30;20053;-63
2021/12/11 12:57:50;;;;;;;0.00;0.00;;;5.90;86.50;;;;;;3929514;30;20066;-64
2021/12/11 13:00:35;;;;;;;0.00;0.00;;;5.90;86.10;;;;;;3917852;30;20098;-64
2021/12/11 13:03:07;;;;;;;0.00;0.00;;;6.00;86.20;;;;;;3917399;30;20065;-64
2021/12/11 13:05:45;;;;;;;0.00;0.00;;;6.10;86.30;;;;;;3917560;30;20060;-63
2021/12/11 13:08:13;;;;;;;0.00;0.00;;;6.10;86.00;;;;;;3929174;30;20052;-65
2021/12/11 13:10:41;;;;;;;0.00;0.00;;;6.10;86.10;;;;;;3929472;30;20151;-63
2021/12/11 13:13:06;;;;;;;0.00;0.00;;;6.20;86.30;;;;;;3917118;30;20052;-63
2021/12/11 13:15:52;;;;;;;0.00;0.00;;;6.10;86.30;;;;;;3917244;30;20061;-63